KBJC

Rocky Mountain Metropolitan Airport

Denver, Colorado, USA
METAR KBJC 172150Z 29007KT 30SM TS SCT100 BKN140 27/14 A3024 RMK TSB48 TS SW MOV NE
Observed Flight Rules
Jul-17 @ 21:50 UTC (60 minutes ago) Visual Flight Rules
Wind Visibility Clouds Conditions
290° at 7 knots 30 miles
  • Scattered at 10,000' AGL
  • Broken at 14,000' AGL
  • Thunderstorm
Temperatures Readings
Current 27°C / 81°F
Dewpoint 14°C / 57°F
Humidity 45%
Altimeter 30.24" Hg
Pressure 1024 hPa
Elevation 1724
METAR KBJC 172150Z 29007KT 30SM TS SCT100 BKN140 27/14 A3024 RMK TSB48 TS SW MOV NE
Observed Flight Rules
Jul-17 @ 21:50 UTC
(60 minutes ago)
VFR
Wind Visibility
290° at 7 knots 30 miles
Clouds
  • Scattered at 10,000' AGL
  • Broken at 14,000' AGL
Conditions
  • Thunderstorm
Temperature Dewpoint
27°C / 81°F 14°C / 57°F
Humidity Altimeter Pressure
45% 30.24" Hg 1024 hPa